createdAt,value
2018-12-14T00:01:43.543Z,19.27
2018-12-14T00:04:18.517Z,19.23
2018-12-14T00:06:51.691Z,18.60
2018-12-14T00:09:26.154Z,19.97
2018-12-14T00:12:00.245Z,18.50
2018-12-14T00:14:35.296Z,20.20
2018-12-14T00:17:10.279Z,19.40
2018-12-14T00:19:45.011Z,20.10
2018-12-14T00:22:20.147Z,19.50
2018-12-14T00:24:54.057Z,19.53
2018-12-14T00:27:29.055Z,19.33
2018-12-14T00:30:09.128Z,19.93
2018-12-14T00:32:43.714Z,20.53
2018-12-14T00:35:20.996Z,21.33
2018-12-14T00:37:52.361Z,22.67
2018-12-14T00:40:27.522Z,20.23
2018-12-14T00:43:02.564Z,20.57
2018-12-14T00:45:39.674Z,20.90
2018-12-14T00:48:14.298Z,20.17
2018-12-14T00:50:53.735Z,20.73
2018-12-14T00:53:31.345Z,21.30
2018-12-14T00:56:09.176Z,21.93
2018-12-14T00:58:44.344Z,20.63
2018-12-14T01:01:23.887Z,21.00
2018-12-14T01:03:55.140Z,21.10
2018-12-14T01:06:30.368Z,19.87
2018-12-14T01:09:05.304Z,19.50
2018-12-14T01:11:40.185Z,19.70
2018-12-14T01:14:21.523Z,20.13
2018-12-14T01:16:56.847Z,20.33
2018-12-14T01:19:32.921Z,20.37
2018-12-14T01:24:56.328Z,20.40
2018-12-14T01:27:33.531Z,21.43
2018-12-14T01:30:06.916Z,21.30
2018-12-14T01:32:44.505Z,21.47
2018-12-14T01:35:19.799Z,24.03
2018-12-14T01:37:55.035Z,21.93
2018-12-14T01:40:29.974Z,24.13
2018-12-14T01:43:04.970Z,21.67
2018-12-14T01:45:38.734Z,21.57
2018-12-14T01:48:13.808Z,22.37
2018-12-14T01:50:48.721Z,23.03
2018-12-14T01:53:23.493Z,24.13
2018-12-14T01:56:03.039Z,23.13
2018-12-14T01:58:45.061Z,22.70
2018-12-14T02:03:53.660Z,21.07
2018-12-14T02:06:29.368Z,21.53
2018-12-14T02:09:08.715Z,20.57
2018-12-14T02:11:44.095Z,19.70
2018-12-14T02:14:18.887Z,20.47
2018-12-14T02:16:53.897Z,21.63
2018-12-14T02:19:30.933Z,21.97
2018-12-14T02:22:05.733Z,20.83
2018-12-14T02:24:40.943Z,19.53
2018-12-14T02:27:17.740Z,20.80
2018-12-14T02:29:51.059Z,20.10
2018-12-14T02:32:25.953Z,18.73
2018-12-14T02:35:05.411Z,19.63
2018-12-14T02:37:40.559Z,18.47
2018-12-14T02:40:15.267Z,18.17
2018-12-14T02:42:50.063Z,15.40
2018-12-14T02:45:24.112Z,14.77
2018-12-14T02:47:58.966Z,13.50
2018-12-14T02:50:34.101Z,12.87
2018-12-14T02:53:11.007Z,12.93
2018-12-14T02:55:46.039Z,13.60
2018-12-14T02:58:21.002Z,12.37
2018-12-14T03:00:56.136Z,13.97
2018-12-14T03:03:29.194Z,15.23
2018-12-14T03:06:03.074Z,14.20
2018-12-14T03:08:38.035Z,16.53
2018-12-14T03:11:13.055Z,15.93
2018-12-14T03:13:47.917Z,16.10
2018-12-14T03:16:22.848Z,16.83
2018-12-14T03:18:57.680Z,14.73
2018-12-14T03:21:34.689Z,15.37
2018-12-14T03:24:11.468Z,14.50
2018-12-14T03:26:46.585Z,14.40
2018-12-14T03:29:21.701Z,14.63
2018-12-14T03:31:57.582Z,13.37
2018-12-14T03:34:33.347Z,16.00
2018-12-14T03:37:11.207Z,16.53
2018-12-14T03:39:51.310Z,18.70
2018-12-14T03:42:33.972Z,17.47
2018-12-14T03:45:02.235Z,18.73
2018-12-14T03:47:33.470Z,16.97
2018-12-14T03:50:05.465Z,17.47
2018-12-14T03:52:37.139Z,20.40
2018-12-14T03:55:10.280Z,17.70
2018-12-14T03:57:43.267Z,17.93
2018-12-14T04:00:14.312Z,15.90
2018-12-14T04:02:48.225Z,17.70
2018-12-14T04:05:19.752Z,16.50
2018-12-14T04:07:51.290Z,17.10
2018-12-14T04:10:28.965Z,15.63
2018-12-14T04:13:03.365Z,15.07
2018-12-14T04:15:34.901Z,15.27
2018-12-14T04:18:08.886Z,13.80
2018-12-14T04:20:42.638Z,14.63
2018-12-14T04:23:17.271Z,14.77
2018-12-14T04:25:48.780Z,13.33
2018-12-14T04:28:21.724Z,11.70
2018-12-14T04:30:54.790Z,12.40
2018-12-14T04:33:28.179Z,14.13
2018-12-14T04:35:59.241Z,18.13
2018-12-14T04:38:32.532Z,15.53
2018-12-14T04:41:03.905Z,17.17
2018-12-14T04:43:37.473Z,16.67
2018-12-14T04:46:08.707Z,18.00
2018-12-14T04:48:41.917Z,17.77
2018-12-14T04:51:13.306Z,17.67
2018-12-14T04:53:46.594Z,16.80
2018-12-14T04:56:19.603Z,17.37
2018-12-14T04:58:53.482Z,15.27
2018-12-14T05:01:24.239Z,17.27
2018-12-14T05:03:57.645Z,17.03
2018-12-14T05:06:29.265Z,15.60
2018-12-14T05:09:03.700Z,16.30
2018-12-14T05:11:35.131Z,15.50
2018-12-14T05:14:08.201Z,16.07
2018-12-14T05:16:41.201Z,15.07
2018-12-14T05:19:12.726Z,17.43
2018-12-14T05:21:46.272Z,16.77
2018-12-14T05:24:17.419Z,16.47
2018-12-14T05:26:48.708Z,16.60
2018-12-14T05:29:22.079Z,14.90
2018-12-14T05:31:55.240Z,14.63
2018-12-14T05:34:26.763Z,16.63
2018-12-14T05:37:00.238Z,15.43
2018-12-14T05:39:33.369Z,15.67
2018-12-14T05:42:06.534Z,16.20
2018-12-14T05:44:40.468Z,14.67
2018-12-14T05:47:11.750Z,14.27
2018-12-14T05:49:45.105Z,12.60
2018-12-14T05:52:18.009Z,11.03
2018-12-14T05:54:52.927Z,12.20
2018-12-14T05:57:25.964Z,12.30
2018-12-14T05:59:58.916Z,11.63
2018-12-14T06:02:30.287Z,11.77
2018-12-14T06:05:03.849Z,12.90
2018-12-14T06:07:34.990Z,13.90
2018-12-14T06:10:09.946Z,15.13
2018-12-14T06:12:43.766Z,16.23
2018-12-14T06:15:15.138Z,14.67
2018-12-14T06:17:48.404Z,16.37
2018-12-14T06:20:21.549Z,15.77
2018-12-14T06:22:57.367Z,16.03
2018-12-14T06:25:29.071Z,14.60
2018-12-14T06:28:00.039Z,15.27
2018-12-14T06:30:33.116Z,15.63
2018-12-14T06:33:04.725Z,14.40
2018-12-14T06:35:35.806Z,15.67
2018-12-14T06:38:07.064Z,14.93
2018-12-14T06:40:38.593Z,15.17
2018-12-14T06:43:15.436Z,16.37
2018-12-14T06:45:46.063Z,15.10
2018-12-14T06:48:17.478Z,14.03
2018-12-14T06:50:51.454Z,16.13
2018-12-14T06:53:22.943Z,15.40
2018-12-14T06:55:56.424Z,14.40
2018-12-14T06:58:30.110Z,15.17
2018-12-14T07:01:03.270Z,15.93
2018-12-14T07:03:34.514Z,15.13
2018-12-14T07:06:05.835Z,13.53
2018-12-14T07:08:40.036Z,14.83
2018-12-14T07:11:15.107Z,16.13
2018-12-14T07:13:46.860Z,15.33
2018-12-14T07:16:20.270Z,14.57
2018-12-14T07:18:54.135Z,14.87
2018-12-14T07:21:25.781Z,15.27
2018-12-14T07:23:59.116Z,15.87
2018-12-14T07:26:30.960Z,15.77
2018-12-14T07:29:02.629Z,14.47
2018-12-14T07:31:33.528Z,14.53
2018-12-14T07:34:06.665Z,14.27
2018-12-14T07:36:42.679Z,15.70
2018-12-14T07:39:14.543Z,14.73
2018-12-14T07:41:46.336Z,16.40
2018-12-14T07:44:20.121Z,14.77
2018-12-14T07:46:55.993Z,14.07
2018-12-14T07:49:27.772Z,15.67
2018-12-14T07:52:01.685Z,14.20
2018-12-14T07:54:35.076Z,13.97
2018-12-14T07:57:06.470Z,11.53
2018-12-14T07:59:39.897Z,10.63
2018-12-14T08:02:11.871Z,8.37
2018-12-14T08:04:45.704Z,7.57
2018-12-14T08:07:19.232Z,8.43
2018-12-14T08:09:52.571Z,7.57
2018-12-14T08:12:24.400Z,6.87
2018-12-14T08:14:57.682Z,7.10
2018-12-14T08:17:29.024Z,7.23
2018-12-14T08:25:04.442Z,11.63
2018-12-14T08:27:38.254Z,12.40
2018-12-14T08:35:17.198Z,11.47
2018-12-14T08:37:51.042Z,11.80
2018-12-14T08:40:24.854Z,10.60
2018-12-14T08:42:58.745Z,11.07
2018-12-14T08:45:30.746Z,9.47
2018-12-14T08:48:03.469Z,8.73
2018-12-14T08:50:37.310Z,8.97
2018-12-14T08:53:11.320Z,8.40
2018-12-14T08:55:47.749Z,9.17
2018-12-14T08:58:20.022Z,7.97
2018-12-14T09:00:52.840Z,9.57
2018-12-14T09:03:37.235Z,10.03
2018-12-14T09:06:21.278Z,9.90
2018-12-14T11:03:14.203Z,7.40
2018-12-14T11:05:45.468Z,8.27
2018-12-14T11:08:20.872Z,6.73
2018-12-14T11:10:52.630Z,7.77
2018-12-14T11:13:26.211Z,6.60
2018-12-14T11:16:01.853Z,6.43
2018-12-14T11:18:33.486Z,7.03
2018-12-14T11:21:06.901Z,5.87
2018-12-14T11:23:38.716Z,5.93
2018-12-14T11:26:11.847Z,5.60
2018-12-14T11:28:48.180Z,5.37
2018-12-14T11:31:19.442Z,5.67
2018-12-14T11:33:55.208Z,5.97
2018-12-14T11:36:26.505Z,5.17
2018-12-14T11:39:00.264Z,5.07
2018-12-14T11:41:32.304Z,5.00
2018-12-14T11:44:04.410Z,5.70
2018-12-14T11:46:39.784Z,5.53
2018-12-14T11:49:12.974Z,5.80
2018-12-14T11:51:44.707Z,5.50
2018-12-14T11:54:17.501Z,6.40
2018-12-14T11:56:49.199Z,6.67
2018-12-14T11:59:24.701Z,6.50
2018-12-14T12:01:56.748Z,6.83
2018-12-14T12:04:30.541Z,6.00
2018-12-14T12:07:01.928Z,6.60
2018-12-14T12:09:36.525Z,6.47
2018-12-14T12:12:10.476Z,6.63
2018-12-14T12:14:44.142Z,6.77
2018-12-14T12:17:15.570Z,7.27
2018-12-14T12:19:49.233Z,6.90
2018-12-14T12:22:21.378Z,7.33
2018-12-14T12:25:06.366Z,7.50
2018-12-14T12:27:38.156Z,7.20
2018-12-14T12:30:09.707Z,8.17
2018-12-14T12:32:48.197Z,7.90
2018-12-14T12:35:19.956Z,7.63
2018-12-14T12:37:51.835Z,7.67
2018-12-14T12:40:24.920Z,7.00
2018-12-14T12:43:10.539Z,7.07
2018-12-14T12:45:41.559Z,6.90
2018-12-14T12:48:14.869Z,7.47
2018-12-14T12:50:49.850Z,7.10
2018-12-14T12:53:24.965Z,6.67
2018-12-14T12:56:00.023Z,7.20
2018-12-14T12:58:33.475Z,6.97
2018-12-14T13:01:09.546Z,8.27
2018-12-14T13:03:41.480Z,6.90
2018-12-14T13:06:13.278Z,8.03
2018-12-14T13:08:44.984Z,7.87
2018-12-14T13:11:18.520Z,7.43
2018-12-14T13:13:54.356Z,15.10
2018-12-14T13:16:31.989Z,8.77
2018-12-14T13:19:07.612Z,9.67
2018-12-14T13:21:40.648Z,8.83
2018-12-14T13:24:12.760Z,8.23
2018-12-14T13:26:46.557Z,9.63
2018-12-14T13:29:22.929Z,9.83
2018-12-14T13:32:05.227Z,9.87
2018-12-14T13:34:38.941Z,9.23
2018-12-14T13:37:13.703Z,8.87
2018-12-14T13:39:45.794Z,9.23
2018-12-14T13:42:21.603Z,8.83
2018-12-14T13:44:57.823Z,10.10
2018-12-14T13:47:31.719Z,9.20
2018-12-14T13:50:05.971Z,8.90
2018-12-14T13:52:39.783Z,9.40
2018-12-14T13:55:14.317Z,7.33
2018-12-14T13:57:45.668Z,8.87
2018-12-14T14:00:21.898Z,7.80
2018-12-14T14:02:55.895Z,7.93
2018-12-14T14:05:27.624Z,8.13
2018-12-14T14:07:59.412Z,7.83
2018-12-14T14:10:32.967Z,7.43
2018-12-14T14:13:06.895Z,7.63
2018-12-14T14:15:37.675Z,6.87
2018-12-14T14:18:09.009Z,7.20
2018-12-14T14:20:43.310Z,7.87
2018-12-14T14:23:15.088Z,8.33
2018-12-14T14:25:48.864Z,7.37
2018-12-14T14:28:22.403Z,7.67
2018-12-14T14:30:53.980Z,8.03
2018-12-14T14:33:26.004Z,9.00
2018-12-14T14:36:00.050Z,8.07
2018-12-14T14:38:33.555Z,9.30
2018-12-14T14:41:05.142Z,7.50
2018-12-14T14:43:39.002Z,7.73
2018-12-14T14:46:12.953Z,10.23
2018-12-14T14:48:47.142Z,9.30
2018-12-14T14:51:21.416Z,9.40
2018-12-14T14:53:54.749Z,8.93
2018-12-14T14:56:26.358Z,9.63
2018-12-14T14:59:01.567Z,9.67
2018-12-14T15:01:32.976Z,8.97
2018-12-14T15:04:06.591Z,8.70
2018-12-14T15:06:40.861Z,9.17
2018-12-14T15:09:12.928Z,9.17
2018-12-14T15:11:44.463Z,10.37
2018-12-14T15:14:17.914Z,9.17
2018-12-14T15:16:52.109Z,8.87
2018-12-14T15:19:26.414Z,8.43
2018-12-14T15:22:04.257Z,10.57
2018-12-14T15:24:35.107Z,9.47
2018-12-14T15:27:06.481Z,10.67
2018-12-14T15:29:37.969Z,9.60
2018-12-14T15:32:09.096Z,9.17
2018-12-14T15:34:42.192Z,9.57
2018-12-14T15:37:15.778Z,9.40
2018-12-14T15:39:47.619Z,9.10
2018-12-14T15:42:21.490Z,8.83
2018-12-14T15:44:52.930Z,8.43
2018-12-14T15:47:23.815Z,9.07
2018-12-14T15:49:54.793Z,9.50
2018-12-14T15:52:25.995Z,8.63
2018-12-14T15:54:56.561Z,8.67
2018-12-14T15:57:27.650Z,8.67
2018-12-14T16:00:01.112Z,9.90
2018-12-14T16:02:34.363Z,10.50
2018-12-14T16:05:06.267Z,9.43
2018-12-14T16:07:37.853Z,9.60
2018-12-14T16:10:11.105Z,10.13
2018-12-14T16:12:42.025Z,9.70
2018-12-14T16:15:19.663Z,9.10
2018-12-14T16:17:48.901Z,10.13
2018-12-14T16:20:20.283Z,9.73
2018-12-14T16:22:53.558Z,9.60
2018-12-14T16:25:26.788Z,8.43
2018-12-14T16:27:57.970Z,9.40
2018-12-14T16:30:29.185Z,10.43
2018-12-14T16:33:03.057Z,9.27
2018-12-14T16:35:34.258Z,8.77
2018-12-14T16:38:07.566Z,9.57
2018-12-14T16:40:39.699Z,9.33
2018-12-14T16:43:11.063Z,10.60
2018-12-14T16:45:42.205Z,8.57
2018-12-14T16:48:15.325Z,8.20
2018-12-14T16:50:50.454Z,9.40
2018-12-14T16:53:23.396Z,8.97
2018-12-14T16:55:56.755Z,9.20
2018-12-14T16:58:28.211Z,10.77
2018-12-14T17:01:03.759Z,8.87
2018-12-14T17:03:35.199Z,9.07
2018-12-14T17:06:06.432Z,8.77
2018-12-14T17:08:37.770Z,9.13
2018-12-14T17:11:09.152Z,9.27
2018-12-14T17:13:40.051Z,9.73
2018-12-14T17:16:17.426Z,10.33
2018-12-14T17:18:49.041Z,10.13
2018-12-14T17:21:19.980Z,10.00
2018-12-14T17:23:50.661Z,10.90
2018-12-14T17:26:21.826Z,10.23
2018-12-14T17:28:55.145Z,9.60
2018-12-14T17:31:26.767Z,10.60
2018-12-14T17:33:59.897Z,10.73
2018-12-14T17:36:30.849Z,10.27
2018-12-14T17:39:04.722Z,10.50
2018-12-14T17:41:38.691Z,10.80
2018-12-14T17:44:11.901Z,9.23
2018-12-14T17:46:49.316Z,11.50
2018-12-14T17:49:28.010Z,13.33
2018-12-14T17:51:59.727Z,10.60
2018-12-14T17:54:32.885Z,10.13
2018-12-14T17:57:04.784Z,11.17
2018-12-14T17:59:36.191Z,11.60
2018-12-14T18:02:09.534Z,11.40
2018-12-14T18:04:46.495Z,12.23
2018-12-14T18:07:19.648Z,11.13
2018-12-14T18:10:01.751Z,10.80
2018-12-14T18:12:33.403Z,11.50
2018-12-14T18:15:07.040Z,13.00
2018-12-14T18:17:41.070Z,12.27
2018-12-14T18:20:12.056Z,11.20
2018-12-14T18:22:46.106Z,10.87
2018-12-14T18:25:22.361Z,10.80
2018-12-14T18:27:55.889Z,9.77
2018-12-14T18:30:27.714Z,12.43
2018-12-14T18:33:01.677Z,14.20
2018-12-14T18:35:34.967Z,12.80
2018-12-14T18:38:10.859Z,14.03
2018-12-14T18:40:43.837Z,15.60
2018-12-14T18:43:19.939Z,14.07
2018-12-14T18:45:53.398Z,12.10
2018-12-14T18:48:24.660Z,12.87
2018-12-14T18:50:57.813Z,13.10
2018-12-14T18:53:30.940Z,12.10
2018-12-14T18:56:02.840Z,12.77
2018-12-14T18:58:35.955Z,13.30
2018-12-14T19:01:06.866Z,13.50
2018-12-14T19:03:41.148Z,13.77
2018-12-14T19:06:23.653Z,13.43
2018-12-14T19:08:59.015Z,12.53
2018-12-14T19:11:31.494Z,13.00
2018-12-14T19:14:04.784Z,14.43
2018-12-14T19:16:36.291Z,13.47
2018-12-14T19:19:11.416Z,14.03
2018-12-14T19:21:48.861Z,15.07
2018-12-14T19:29:22.936Z,13.27
2018-12-14T19:31:53.725Z,12.17
2018-12-14T19:34:31.588Z,12.77
2018-12-14T19:39:50.665Z,12.63
2018-12-14T19:42:22.723Z,12.13
2018-12-14T19:44:56.232Z,13.20
2018-12-14T19:47:33.552Z,10.93
2018-12-14T19:50:05.755Z,12.03
2018-12-14T19:52:41.991Z,9.70
2018-12-14T19:55:28.567Z,10.07
2018-12-14T19:58:00.164Z,10.47
2018-12-14T20:00:33.604Z,10.10
2018-12-14T20:03:05.043Z,10.87
2018-12-14T20:05:35.868Z,11.70
2018-12-14T20:08:07.556Z,11.43
2018-12-14T20:10:39.340Z,11.07
2018-12-14T20:13:12.725Z,11.33
2018-12-14T20:15:44.081Z,11.27
2018-12-14T20:18:15.082Z,11.57
2018-12-14T20:20:48.013Z,10.10
2018-12-14T20:23:19.000Z,12.80
2018-12-14T20:25:52.223Z,11.07
2018-12-14T20:28:24.882Z,12.07
2018-12-14T20:30:59.005Z,11.37
2018-12-14T20:33:32.272Z,12.03
2018-12-14T20:36:03.072Z,11.33
2018-12-14T20:38:33.711Z,10.53
2018-12-14T20:41:04.880Z,9.10
2018-12-14T20:43:35.725Z,12.13
2018-12-14T20:46:09.179Z,12.03
2018-12-14T20:48:39.862Z,10.00
2018-12-14T20:51:10.953Z,10.63
2018-12-14T20:53:44.479Z,11.03
2018-12-14T20:56:15.867Z,12.00
2018-12-14T20:58:46.715Z,11.30
2018-12-14T21:01:20.642Z,9.77
2018-12-14T21:03:54.331Z,10.90
2018-12-14T21:06:25.828Z,9.70
2018-12-14T21:08:59.178Z,11.23
2018-12-14T21:11:30.604Z,10.50
2018-12-14T21:14:04.230Z,11.00
2018-12-14T21:16:35.618Z,11.57
2018-12-14T21:19:07.037Z,10.30
2018-12-14T21:21:38.090Z,10.00
2018-12-14T21:24:09.759Z,10.33
2018-12-14T21:26:43.118Z,10.30
2018-12-14T21:29:16.152Z,9.90
2018-12-14T21:31:47.572Z,9.93
2018-12-14T21:34:21.060Z,9.47
2018-12-14T21:36:54.053Z,9.93
2018-12-14T21:39:25.647Z,9.70
2018-12-14T21:41:59.323Z,11.13
2018-12-14T21:44:36.425Z,10.23
2018-12-14T21:47:09.632Z,10.60
2018-12-14T21:49:43.483Z,10.27
2018-12-14T21:52:21.743Z,10.30
2018-12-14T21:54:56.595Z,10.20
2018-12-14T21:57:30.414Z,10.40
2018-12-14T22:00:02.186Z,9.57
2018-12-14T22:02:33.765Z,8.87
2018-12-14T22:05:11.093Z,9.40
2018-12-14T22:07:41.916Z,9.10
2018-12-14T22:10:15.590Z,9.77
2018-12-14T22:12:48.544Z,8.83
2018-12-14T22:15:22.470Z,9.23
2018-12-14T22:17:54.262Z,8.43
2018-12-14T22:20:26.701Z,9.47
2018-12-14T22:23:08.770Z,8.50
2018-12-14T22:25:42.437Z,9.17
2018-12-14T22:28:13.988Z,11.10
2018-12-14T22:30:49.519Z,8.20
2018-12-14T22:33:36.460Z,8.70
2018-12-14T22:36:08.195Z,9.33
2018-12-14T22:38:40.538Z,9.67
2018-12-14T22:41:12.152Z,9.87
2018-12-14T22:43:43.701Z,10.40
2018-12-14T22:46:16.677Z,10.60
2018-12-14T22:48:48.251Z,12.10
2018-12-14T22:51:21.488Z,13.40
2018-12-14T22:53:52.944Z,10.63
2018-12-14T22:56:28.242Z,9.70
2018-12-14T22:59:03.829Z,9.50
2018-12-14T23:01:36.945Z,10.30
2018-12-14T23:04:10.147Z,11.23
2018-12-14T23:06:41.362Z,10.27
2018-12-14T23:09:12.434Z,14.03
2018-12-14T23:11:45.747Z,12.47
2018-12-14T23:14:19.559Z,15.40
2018-12-14T23:16:52.391Z,9.97
2018-12-14T23:19:26.445Z,8.57
2018-12-14T23:21:57.913Z,10.03
2018-12-14T23:24:31.154Z,8.17
2018-12-14T23:27:04.807Z,9.40
2018-12-14T23:29:36.158Z,9.60
2018-12-14T23:32:07.011Z,9.70
2018-12-14T23:34:40.129Z,10.30
2018-12-14T23:37:14.079Z,10.10
2018-12-14T23:39:44.932Z,10.07
2018-12-14T23:42:18.393Z,9.67
2018-12-14T23:44:49.157Z,10.57
2018-12-14T23:47:20.094Z,10.40
2018-12-14T23:49:51.245Z,8.77
2018-12-14T23:52:22.001Z,9.70
2018-12-14T23:54:55.311Z,9.53
2018-12-14T23:57:32.393Z,8.53
